Time;durP1;ratioP1;P1;durP2;ratioP2;P2;SDS_P1;SDS_P2;PMS_P1;PMS_P2;Temp;Humidity;BMP_temperature;BMP_pressure;BME280_temperature;BME280_humidity;BME280_pressure;Samples;Min_cycle;Max_cycle;Signal;HPM_P1;HPM_P2
2022/08/02 00:00:26;;;;;;;2.80;0.45;;;;;;;;;;5303084;28;20034;-71
2022/08/02 00:02:57;;;;;;;2.08;0.50;;;;;;;;;;5302611;28;20026;-70
2022/08/02 00:05:28;;;;;;;3.78;0.75;;;;;;;;;;5302727;28;20379;-69
2022/08/02 00:07:59;;;;;;;2.27;0.60;;;;;;;;;;5302223;28;20752;-70
2022/08/02 00:10:31;;;;;;;4.10;0.60;;;;;;;;;;5302968;28;20262;-70
2022/08/02 00:13:02;;;;;;;2.33;0.50;;;;;;;;;;5302974;28;20184;-70
2022/08/02 00:15:33;;;;;;;1.92;0.52;;;;;;;;;;5302255;28;20103;-70
2022/08/02 00:18:04;;;;;;;2.50;0.50;;;;;;;;;;5302888;28;20031;-70
2022/08/02 00:20:36;;;;;;;2.83;0.73;;;;;;;;;;5302809;28;20112;-70
2022/08/02 00:23:07;;;;;;;4.32;0.65;;;;;;;;;;5301993;28;20345;-70
2022/08/02 00:25:38;;;;;;;5.18;0.40;;;;;;;;;;5302971;28;20016;-70
2022/08/02 00:28:12;;;;;;;3.70;0.55;;;;;;;;;;5302732;28;20024;-70
2022/08/02 00:30:43;;;;;;;3.60;0.50;;;;;;;;;;5301265;28;20113;-70
2022/08/02 00:33:14;;;;;;;3.60;0.45;;;;;;;;;;5302646;28;20035;-70
2022/08/02 00:35:46;;;;;;;2.63;0.52;;;;;;;;;;5302563;28;20262;-70
2022/08/02 00:38:17;;;;;;;4.40;0.50;;;;;;;;;;5301977;28;20023;-70
2022/08/02 00:40:51;;;;;;;3.07;0.40;;;;;;;;;;5302672;28;20055;-70
2022/08/02 00:43:22;;;;;;;2.80;0.40;;;;;;;;;;5301439;28;20278;-70
2022/08/02 00:45:53;;;;;;;2.10;0.40;;;;;;;;;;5302549;28;20103;-70
2022/08/02 00:48:24;;;;;;;2.15;0.40;;;;;;;;;;5302095;28;20757;-70
2022/08/02 00:50:56;;;;;;;1.67;0.35;;;;;;;;;;5302093;28;20016;-70
2022/08/02 00:53:27;;;;;;;1.90;0.40;;;;;;;;;;5302055;28;20262;-70
2022/08/02 00:55:58;;;;;;;3.03;0.50;;;;;;;;;;5302666;28;20026;-70
2022/08/02 00:58:30;;;;;;;2.63;0.40;;;;;;;;;;5301091;28;20701;-70
2022/08/02 01:01:02;;;;;;;2.83;0.40;;;;;;;;;;5302568;28;20443;-71
2022/08/02 01:03:33;;;;;;;2.63;0.40;;;;;;;;;;5302530;28;20071;-70
2022/08/02 01:06:04;;;;;;;1.48;0.50;;;;;;;;;;5301416;28;20017;-71
2022/08/02 01:08:39;;;;;;;5.60;0.40;;;;;;;;;;5302298;28;20405;-70
2022/08/02 01:11:10;;;;;;;1.90;0.40;;;;;;;;;;5301913;28;20038;-71
2022/08/02 01:13:41;;;;;;;3.73;0.40;;;;;;;;;;5301902;28;20016;-71
2022/08/02 01:16:19;;;;;;;2.23;0.47;;;;;;;;;;5302277;28;20300;-71
2022/08/02 01:18:53;;;;;;;3.28;0.43;;;;;;;;;;5301748;28;20284;-70
2022/08/02 01:21:27;;;;;;;4.32;0.70;;;;;;;;;;5301451;28;20495;-71
2022/08/02 01:24:18;;;;;;;2.88;0.40;;;;;;;;;;5302294;28;20073;-70
2022/08/02 01:26:53;;;;;;;4.18;0.57;;;;;;;;;;5301585;28;20070;-70
2022/08/02 01:29:30;;;;;;;3.97;0.60;;;;;;;;;;5301762;28;20057;-70
2022/08/02 01:32:01;;;;;;;6.35;0.50;;;;;;;;;;5302037;28;20038;-71
2022/08/02 01:34:36;;;;;;;4.00;0.80;;;;;;;;;;5301448;28;20020;-71
2022/08/02 01:37:14;;;;;;;6.68;1.08;;;;;;;;;;5302068;28;20028;-70
2022/08/02 01:39:48;;;;;;;3.97;0.38;;;;;;;;;;5301170;28;20057;-70
2022/08/02 01:42:20;;;;;;;5.65;0.70;;;;;;;;;;5302622;28;20860;-70
2022/08/02 01:44:52;;;;;;;2.15;0.45;;;;;;;;;;5306092;28;20023;-70
2022/08/02 01:47:26;;;;;;;5.55;0.60;;;;;;;;;;5304571;28;20463;-70
2022/08/02 01:49:58;;;;;;;2.67;0.40;;;;;;;;;;5306139;28;20416;-70
2022/08/02 01:52:31;;;;;;;3.80;0.50;;;;;;;;;;5305318;28;20067;-70
2022/08/02 01:55:06;;;;;;;2.55;0.65;;;;;;;;;;5305152;28;20039;-70
2022/08/02 01:57:43;;;;;;;5.32;0.57;;;;;;;;;;5305584;28;20418;-70
2022/08/02 02:00:15;;;;;;;5.13;0.50;;;;;;;;;;5305580;28;20020;-70
2022/08/02 02:02:48;;;;;;;2.83;0.60;;;;;;;;;;5304827;28;20081;-70
2022/08/02 02:05:19;;;;;;;6.18;0.55;;;;;;;;;;5305104;28;20458;-70
2022/08/02 02:07:52;;;;;;;3.58;0.40;;;;;;;;;;5305061;28;20073;-69
2022/08/02 02:10:25;;;;;;;5.47;0.50;;;;;;;;;;5305219;28;20020;-71
2022/08/02 02:12:58;;;;;;;2.25;0.30;;;;;;;;;;5305705;28;20095;-71
2022/08/02 02:15:30;;;;;;;4.63;0.40;;;;;;;;;;5304099;28;20027;-71
2022/08/02 02:18:02;;;;;;;3.47;0.50;;;;;;;;;;5305444;28;20452;-71
2022/08/02 02:20:33;;;;;;;3.53;0.70;;;;;;;;;;5305199;28;20036;-71
2022/08/02 02:23:04;;;;;;;6.23;0.60;;;;;;;;;;5304475;28;20031;-71
2022/08/02 02:25:36;;;;;;;4.07;0.47;;;;;;;;;;5305152;28;20276;-70
2022/08/02 02:28:34;;;;;;;3.95;0.50;;;;;;;;;;5304980;28;20115;-71
2022/08/02 02:31:12;;;;;;;3.67;0.50;;;;;;;;;;5301718;28;20028;-69
2022/08/02 02:33:51;;;;;;;5.45;0.50;;;;;;;;;;5304918;28;20051;-69
2022/08/02 02:36:23;;;;;;;4.82;0.55;;;;;;;;;;5303859;28;20494;-70
2022/08/02 02:38:56;;;;;;;1.45;0.30;;;;;;;;;;5305101;28;20024;-70
2022/08/02 02:41:27;;;;;;;5.20;0.50;;;;;;;;;;5304383;28;20024;-70
2022/08/02 02:44:00;;;;;;;2.80;0.50;;;;;;;;;;5304239;28;20354;-70
2022/08/02 02:46:32;;;;;;;5.35;0.70;;;;;;;;;;5304602;28;20030;-70
2022/08/02 02:49:04;;;;;;;4.85;0.40;;;;;;;;;;5304750;28;20016;-70
2022/08/02 02:51:35;;;;;;;3.95;0.40;;;;;;;;;;5303900;28;20074;-70
2022/08/02 02:54:08;;;;;;;3.92;0.50;;;;;;;;;;5303633;28;20020;-70
2022/08/02 02:56:39;;;;;;;2.33;0.40;;;;;;;;;;5304240;28;20069;-70
2022/08/02 02:59:12;;;;;;;2.55;0.50;;;;;;;;;;5303772;28;20016;-70
2022/08/02 03:01:44;;;;;;;3.00;0.65;;;;;;;;;;5304334;28;20030;-70
2022/08/02 03:04:16;;;;;;;3.85;0.63;;;;;;;;;;5303631;28;20107;-69
2022/08/02 03:06:47;;;;;;;3.30;0.50;;;;;;;;;;5304235;28;20031;-69
2022/08/02 03:09:18;;;;;;;6.95;0.60;;;;;;;;;;5303898;28;20020;-70
2022/08/02 03:11:50;;;;;;;2.28;0.60;;;;;;;;;;5303641;28;20020;-70
2022/08/02 03:14:21;;;;;;;6.35;0.77;;;;;;;;;;5303792;28;20023;-70
2022/08/02 03:16:53;;;;;;;3.70;0.93;;;;;;;;;;5304610;28;20498;-70
2022/08/02 03:19:24;;;;;;;4.82;0.63;;;;;;;;;;5303196;28;20023;-70
2022/08/02 03:21:56;;;;;;;4.30;0.50;;;;;;;;;;5304282;28;20151;-70
2022/08/02 03:24:27;;;;;;;3.53;0.50;;;;;;;;;;5303670;28;20613;-70
2022/08/02 03:26:58;;;;;;;2.58;0.50;;;;;;;;;;5303366;28;20031;-70
2022/08/02 03:29:30;;;;;;;6.97;0.50;;;;;;;;;;5304008;28;20270;-70
2022/08/02 03:32:01;;;;;;;3.10;0.43;;;;;;;;;;5303066;28;20374;-70
2022/08/02 03:34:32;;;;;;;4.83;0.50;;;;;;;;;;5303715;28;20267;-70
2022/08/02 03:37:03;;;;;;;4.25;0.60;;;;;;;;;;5303738;28;20266;-70
2022/08/02 03:39:35;;;;;;;3.83;0.50;;;;;;;;;;5302520;28;20030;-70
2022/08/02 03:42:07;;;;;;;4.72;0.60;;;;;;;;;;5303352;28;20028;-70
2022/08/02 03:44:38;;;;;;;3.95;0.50;;;;;;;;;;5303628;28;20047;-70
2022/08/02 03:47:09;;;;;;;5.40;0.60;;;;;;;;;;5302356;28;20056;-70
2022/08/02 03:49:41;;;;;;;4.13;1.00;;;;;;;;;;5303561;28;20026;-70
2022/08/02 03:52:13;;;;;;;2.58;0.50;;;;;;;;;;5303315;28;20031;-70
2022/08/02 03:54:44;;;;;;;3.97;0.60;;;;;;;;;;5302572;28;20005;-70
2022/08/02 03:57:15;;;;;;;6.55;1.13;;;;;;;;;;5303263;28;20399;-70
2022/08/02 03:59:46;;;;;;;7.20;0.70;;;;;;;;;;5303022;28;20107;-70
2022/08/02 04:02:18;;;;;;;6.05;0.70;;;;;;;;;;5302373;28;20046;-70
2022/08/02 04:04:49;;;;;;;3.95;0.82;;;;;;;;;;5303116;28;20258;-70
2022/08/02 04:07:20;;;;;;;3.80;0.80;;;;;;;;;;5301804;28;20038;-71
2022/08/02 04:09:51;;;;;;;6.03;1.00;;;;;;;;;;5303383;28;20020;-71
2022/08/02 04:12:22;;;;;;;5.03;0.70;;;;;;;;;;5302584;28;20323;-71
2022/08/02 04:14:54;;;;;;;3.57;1.10;;;;;;;;;;5302637;28;20265;-70
2022/08/02 04:17:26;;;;;;;7.20;0.80;;;;;;;;;;5302672;28;20335;-71
2022/08/02 04:20:13;;;;;;;5.25;1.17;;;;;;;;;;5303080;28;20039;-70
2022/08/02 04:22:46;;;;;;;4.13;0.73;;;;;;;;;;5302179;28;20107;-70
2022/08/02 04:25:18;;;;;;;5.80;0.90;;;;;;;;;;5302624;28;20024;-71
2022/08/02 04:27:50;;;;;;;5.03;0.90;;;;;;;;;;5302867;28;20050;-70
2022/08/02 04:30:21;;;;;;;10.98;1.45;;;;;;;;;;5301637;28;20401;-70
2022/08/02 04:32:53;;;;;;;7.03;0.88;;;;;;;;;;5302903;28;20439;-70
2022/08/02 04:35:24;;;;;;;3.30;0.88;;;;;;;;;;5301350;28;20030;-71
2022/08/02 04:37:56;;;;;;;9.02;0.93;;;;;;;;;;5302818;28;20458;-71
2022/08/02 04:40:27;;;;;;;8.90;0.90;;;;;;;;;;5302343;28;20008;-71
2022/08/02 04:42:58;;;;;;;6.38;1.13;;;;;;;;;;5302077;28;20073;-71
2022/08/02 04:45:29;;;;;;;6.82;1.02;;;;;;;;;;5302130;28;20035;-70
2022/08/02 04:48:00;;;;;;;8.43;1.48;;;;;;;;;;5302642;28;20032;-71
2022/08/02 04:50:32;;;;;;;7.22;1.38;;;;;;;;;;5301831;28;20027;-71
2022/08/02 04:53:03;;;;;;;7.95;1.13;;;;;;;;;;5302412;28;20269;-71
2022/08/02 04:55:34;;;;;;;6.23;0.90;;;;;;;;;;5302394;28;20382;-70
2022/08/02 04:58:06;;;;;;;9.23;1.50;;;;;;;;;;5301432;28;20345;-70
2022/08/02 05:00:37;;;;;;;11.32;2.30;;;;;;;;;;5302537;28;20509;-70
2022/08/02 05:03:08;;;;;;;8.13;1.65;;;;;;;;;;5302390;28;20048;-69
2022/08/02 05:05:39;;;;;;;11.57;1.65;;;;;;;;;;5301497;28;20096;-70
2022/08/02 05:08:10;;;;;;;2.78;1.10;;;;;;;;;;5302125;28;20035;-70
2022/08/02 05:10:41;;;;;;;9.27;2.03;;;;;;;;;;5301494;28;20270;-70
2022/08/02 05:13:13;;;;;;;9.30;2.50;;;;;;;;;;5302565;28;20271;-70
2022/08/02 05:15:46;;;;;;;12.48;1.98;;;;;;;;;;5302435;28;20283;-70
2022/08/02 05:18:18;;;;;;;8.25;1.88;;;;;;;;;;5304219;28;20270;-69
2022/08/02 05:20:49;;;;;;;7.35;2.10;;;;;;;;;;5306337;28;20051;-71
2022/08/02 05:23:20;;;;;;;12.32;2.15;;;;;;;;;;5305875;28;20442;-70
2022/08/02 05:25:51;;;;;;;9.05;2.67;;;;;;;;;;5305770;28;20756;-70
2022/08/02 05:28:23;;;;;;;12.77;2.47;;;;;;;;;;5305869;28;20725;-71
2022/08/02 05:30:54;;;;;;;7.10;2.47;;;;;;;;;;5306477;28;20605;-70
2022/08/02 05:33:25;;;;;;;14.77;2.63;;;;;;;;;;5304874;28;20431;-70
2022/08/02 05:35:57;;;;;;;7.07;2.30;;;;;;;;;;5306471;28;20745;-71
2022/08/02 05:38:31;;;;;;;9.75;2.80;;;;;;;;;;5304861;28;20270;-71
2022/08/02 05:41:02;;;;;;;6.18;2.53;;;;;;;;;;5305978;28;20008;-70
2022/08/02 05:43:33;;;;;;;6.75;2.90;;;;;;;;;;5305949;28;20383;-70
2022/08/02 05:46:04;;;;;;;5.93;2.70;;;;;;;;;;5304969;28;20031;-71
2022/08/02 05:48:35;;;;;;;6.17;3.03;;;;;;;;;;5305733;28;20028;-70
2022/08/02 05:51:11;;;;;;;6.70;3.40;;;;;;;;;;5305690;28;20700;-71
2022/08/02 05:53:48;;;;;;;6.57;2.53;;;;;;;;;;5305040;28;20270;-71
2022/08/02 05:56:44;;;;;;;6.35;2.38;;;;;;;;;;5305362;28;20040;-70
2022/08/02 05:59:28;;;;;;;6.35;2.40;;;;;;;;;;5305642;28;20024;-71
2022/08/02 06:02:02;;;;;;;7.63;3.13;;;;;;;;;;5304908;28;20028;-71
2022/08/02 06:04:48;;;;;;;7.10;2.80;;;;;;;;;;5305558;28;20016;-71
2022/08/02 06:07:20;;;;;;;5.97;3.08;;;;;;;;;;5304525;28;20036;-71
2022/08/02 06:09:52;;;;;;;8.75;2.80;;;;;;;;;;5305891;28;20049;-70
2022/08/02 06:12:27;;;;;;;7.13;3.42;;;;;;;;;;5305185;28;20107;-70
2022/08/02 06:15:00;;;;;;;6.38;3.15;;;;;;;;;;5304729;28;20122;-72
2022/08/02 06:17:31;;;;;;;9.63;3.35;;;;;;;;;;5305270;28;20027;-71
2022/08/02 06:20:02;;;;;;;6.35;3.30;;;;;;;;;;5305219;28;20459;-71
2022/08/02 06:22:34;;;;;;;8.60;3.45;;;;;;;;;;5304465;28;20016;-71
2022/08/02 06:25:05;;;;;;;7.88;3.50;;;;;;;;;;5305234;28;20062;-71
2022/08/02 06:27:37;;;;;;;9.43;3.70;;;;;;;;;;5305077;28;20039;-71
2022/08/02 06:30:09;;;;;;;7.55;3.50;;;;;;;;;;5303094;28;20027;-71
2022/08/02 06:32:40;;;;;;;8.23;3.53;;;;;;;;;;5305176;28;20024;-71
2022/08/02 06:35:11;;;;;;;7.53;3.63;;;;;;;;;;5303867;28;20066;-71
2022/08/02 06:37:52;;;;;;;8.45;4.00;;;;;;;;;;5304763;28;20058;-71
2022/08/02 06:40:29;;;;;;;8.38;4.15;;;;;;;;;;5304390;28;20263;-72
2022/08/02 06:43:05;;;;;;;6.38;4.00;;;;;;;;;;5304526;28;20081;-72
2022/08/02 06:45:37;;;;;;;8.57;4.50;;;;;;;;;;5304442;28;20016;-71
2022/08/02 06:48:09;;;;;;;9.07;5.43;;;;;;;;;;5304621;28;20032;-71
2022/08/02 06:50:42;;;;;;;9.48;4.68;;;;;;;;;;5303863;28;20016;-71
2022/08/02 06:53:14;;;;;;;7.78;4.55;;;;;;;;;;5304786;28;20024;-71
2022/08/02 06:55:45;;;;;;;8.17;5.30;;;;;;;;;;5304531;28;20020;-71
2022/08/02 06:58:16;;;;;;;9.98;5.65;;;;;;;;;;5303771;28;20293;-71
2022/08/02 07:00:47;;;;;;;7.80;6.23;;;;;;;;;;5300724;28;20012;-70
2022/08/02 07:03:19;;;;;;;17.17;6.78;;;;;;;;;;5302340;28;20337;-72
2022/08/02 07:05:50;;;;;;;11.30;6.38;;;;;;;;;;5304122;28;20042;-73
2022/08/02 07:08:22;;;;;;;11.70;6.30;;;;;;;;;;5303761;28;20038;-72
2022/08/02 07:10:55;;;;;;;11.95;7.15;;;;;;;;;;5303483;28;20046;-72
2022/08/02 07:13:27;;;;;;;10.82;5.95;;;;;;;;;;5303903;28;20028;-73
2022/08/02 07:15:58;;;;;;;15.40;6.05;;;;;;;;;;5304251;28;20031;-72
2022/08/02 07:18:29;;;;;;;9.88;5.70;;;;;;;;;;5302655;28;20054;-73
2022/08/02 07:21:01;;;;;;;12.13;5.25;;;;;;;;;;5303450;28;20467;-73
2022/08/02 07:23:32;;;;;;;7.18;5.38;;;;;;;;;;5303679;28;20019;-72
2022/08/02 07:26:03;;;;;;;9.53;4.03;;;;;;;;;;5303120;28;20027;-73
2022/08/02 07:28:34;;;;;;;7.30;4.13;;;;;;;;;;5303907;28;20286;-73
2022/08/02 07:31:05;;;;;;;11.98;4.60;;;;;;;;;;5303002;28;20463;-72
2022/08/02 07:33:36;;;;;;;7.30;4.10;;;;;;;;;;5303718;28;20814;-73
2022/08/02 07:36:08;;;;;;;8.63;3.92;;;;;;;;;;5303676;28;20561;-73
2022/08/02 07:38:39;;;;;;;8.32;4.05;;;;;;;;;;5302762;28;20402;-76
2022/08/02 07:41:10;;;;;;;8.07;3.13;;;;;;;;;;5303322;28;20333;-72
2022/08/02 07:43:41;;;;;;;4.18;2.78;;;;;;;;;;5303723;28;20285;-71
2022/08/02 07:46:12;;;;;;;3.17;2.45;;;;;;;;;;5302791;28;20034;-72
2022/08/02 07:48:45;;;;;;;8.18;3.28;;;;;;;;;;5303519;28;20028;-72
2022/08/02 07:51:16;;;;;;;6.13;2.92;;;;;;;;;;5303612;28;20019;-72
2022/08/02 07:53:47;;;;;;;5.40;2.50;;;;;;;;;;5302823;28;20024;-71
2022/08/02 07:56:18;;;;;;;6.78;2.60;;;;;;;;;;5303188;28;20043;-71
2022/08/02 07:58:49;;;;;;;3.28;2.22;;;;;;;;;;5303665;28;20031;-71
2022/08/02 08:01:21;;;;;;;4.88;2.15;;;;;;;;;;5302095;28;20081;-72
2022/08/02 08:03:52;;;;;;;3.55;2.05;;;;;;;;;;5303526;28;20039;-71
2022/08/02 08:06:23;;;;;;;3.15;1.58;;;;;;;;;;5301873;28;20096;-72
2022/08/02 08:08:54;;;;;;;4.83;1.00;;;;;;;;;;5303378;28;20454;-70
2022/08/02 08:11:25;;;;;;;6.37;1.30;;;;;;;;;;5302789;28;20250;-70
2022/08/02 08:13:56;;;;;;;3.70;1.10;;;;;;;;;;5302326;28;20019;-70
2022/08/02 08:16:28;;;;;;;2.20;1.00;;;;;;;;;;5302667;28;20266;-71
2022/08/02 08:19:00;;;;;;;2.08;0.88;;;;;;;;;;5302978;28;20266;-72
2022/08/02 08:21:31;;;;;;;2.72;0.90;;;;;;;;;;5301469;28;20174;-72
2022/08/02 08:24:03;;;;;;;1.92;0.73;;;;;;;;;;5302877;28;20028;-72
2022/08/02 08:26:34;;;;;;;5.03;0.85;;;;;;;;;;5302672;28;20032;-72
2022/08/02 08:29:06;;;;;;;4.13;0.73;;;;;;;;;;5302093;28;20024;-73
2022/08/02 08:31:37;;;;;;;5.35;1.05;;;;;;;;;;5302750;28;20048;-73
2022/08/02 08:34:09;;;;;;;3.50;0.67;;;;;;;;;;5302729;28;20455;-73
2022/08/02 08:36:40;;;;;;;2.08;0.73;;;;;;;;;;5301598;28;20359;-73
2022/08/02 08:39:11;;;;;;;2.13;0.80;;;;;;;;;;5301339;28;20020;-73
2022/08/02 08:41:42;;;;;;;3.28;0.60;;;;;;;;;;5301572;28;20092;-73
2022/08/02 08:44:14;;;;;;;4.50;0.70;;;;;;;;;;5302191;28;20035;-72
2022/08/02 08:46:47;;;;;;;5.20;0.60;;;;;;;;;;5302453;28;20107;-73
2022/08/02 08:49:28;;;;;;;4.05;0.60;;;;;;;;;;5301295;28;20020;-73
2022/08/02 08:52:04;;;;;;;2.83;0.50;;;;;;;;;;5301976;28;20297;-73
2022/08/02 08:54:35;;;;;;;1.92;0.50;;;;;;;;;;5302566;28;20012;-72
2022/08/02 08:57:07;;;;;;;3.38;0.43;;;;;;;;;;5301594;28;20016;-72
2022/08/02 08:59:38;;;;;;;2.85;0.32;;;;;;;;;;5302412;28;20024;-73
2022/08/02 09:02:10;;;;;;;5.72;0.40;;;;;;;;;;5302537;28;20417;-73
2022/08/02 09:04:41;;;;;;;4.28;0.35;;;;;;;;;;5301691;28;20022;-72
2022/08/02 09:07:12;;;;;;;3.80;0.50;;;;;;;;;;5302277;28;20032;-73
2022/08/02 09:09:43;;;;;;;1.40;0.40;;;;;;;;;;5301557;28;20490;-73
2022/08/02 09:12:15;;;;;;;0.90;0.30;;;;;;;;;;5302282;28;20262;-73
2022/08/02 09:14:46;;;;;;;1.63;0.40;;;;;;;;;;5302463;28;20023;-73
2022/08/02 09:17:18;;;;;;;1.80;0.40;;;;;;;;;;5301610;28;20016;-73
2022/08/02 09:20:04;;;;;;;4.20;0.30;;;;;;;;;;5302655;28;20099;-72
2022/08/02 09:22:35;;;;;;;2.28;0.45;;;;;;;;;;5302085;28;20048;-73
2022/08/02 09:25:13;;;;;;;5.63;0.30;;;;;;;;;;5301628;28;20061;-73
2022/08/02 09:27:46;;;;;;;1.83;0.40;;;;;;;;;;5302348;28;20028;-73
2022/08/02 09:30:17;;;;;;;3.88;0.40;;;;;;;;;;5302173;28;20016;-73
2022/08/02 09:32:49;;;;;;;2.20;0.30;;;;;;;;;;5301313;28;20016;-73
2022/08/02 09:35:29;;;;;;;1.00;0.20;;;;;;;;;;5301656;28;20016;-73
2022/08/02 09:38:11;;;;;;;0.68;0.30;;;;;;;;;;5301463;28;20070;-72
2022/08/02 09:40:43;;;;;;;0.93;0.28;;;;;;;;;;5302120;28;20023;-72
2022/08/02 09:43:16;;;;;;;0.95;0.30;;;;;;;;;;5302042;28;20016;-73
2022/08/02 09:45:47;;;;;;;1.35;0.30;;;;;;;;;;5301451;28;20055;-73
2022/08/02 09:48:18;;;;;;;1.43;0.30;;;;;;;;;;5301910;28;20603;-73
2022/08/02 09:50:55;;;;;;;1.67;0.37;;;;;;;;;;5302192;28;20290;-73
2022/08/02 09:53:26;;;;;;;3.22;0.20;;;;;;;;;;5300818;28;20070;-71
2022/08/02 09:55:57;;;;;;;4.93;0.30;;;;;;;;;;5302271;28;20013;-71
2022/08/02 09:58:28;;;;;;;2.45;0.30;;;;;;;;;;5301756;28;20061;-72
2022/08/02 10:01:00;;;;;;;2.57;0.23;;;;;;;;;;5301152;28;20016;-72
2022/08/02 10:03:32;;;;;;;3.25;0.32;;;;;;;;;;5303241;28;20026;-72
2022/08/02 10:06:03;;;;;;;2.30;0.30;;;;;;;;;;5304772;28;20127;-72
2022/08/02 10:08:34;;;;;;;0.85;0.20;;;;;;;;;;5305390;28;20097;-71
2022/08/02 10:11:05;;;;;;;1.10;0.30;;;;;;;;;;5305766;28;20090;-72
2022/08/02 10:13:37;;;;;;;2.90;0.20;;;;;;;;;;5304682;28;20051;-72
2022/08/02 10:16:08;;;;;;;4.00;0.30;;;;;;;;;;5305333;28;20027;-71
2022/08/02 10:18:40;;;;;;;0.98;0.20;;;;;;;;;;5305369;28;20027;-72
2022/08/02 10:21:14;;;;;;;0.70;0.20;;;;;;;;;;5304276;28;20055;-71
2022/08/02 10:23:47;;;;;;;2.22;0.28;;;;;;;;;;5305126;28;20290;-72
2022/08/02 10:26:19;;;;;;;6.25;0.35;;;;;;;;;;5305164;28;20048;-73
2022/08/02 10:28:51;;;;;;;1.10;0.20;;;;;;;;;;5304810;28;20039;-71
2022/08/02 10:31:27;;;;;;;1.55;0.20;;;;;;;;;;5304738;28;20085;-71
2022/08/02 10:34:00;;;;;;;2.15;0.30;;;;;;;;;;5304735;28;20028;-71
2022/08/02 10:36:32;;;;;;;3.08;0.20;;;;;;;;;;5304913;28;20020;-72
2022/08/02 10:39:04;;;;;;;1.90;0.30;;;;;;;;;;5304984;28;20015;-73
2022/08/02 10:41:42;;;;;;;2.17;0.20;;;;;;;;;;5303971;28;20027;-72
2022/08/02 10:44:25;;;;;;;2.17;0.20;;;;;;;;;;5304634;28;20387;-72
2022/08/02 10:47:16;;;;;;;6.63;0.60;;;;;;;;;;5305181;28;20441;-72
2022/08/02 10:49:50;;;;;;;2.30;0.28;;;;;;;;;;5303944;28;20040;-72
2022/08/02 10:52:22;;;;;;;6.03;0.47;;;;;;;;;;5304186;28;20126;-72
2022/08/02 10:54:55;;;;;;;3.28;0.20;;;;;;;;;;5304756;28;20103;-71
2022/08/02 10:57:28;;;;;;;4.05;0.30;;;;;;;;;;5303410;28;20073;-72
2022/08/02 10:59:59;;;;;;;6.68;0.45;;;;;;;;;;5304573;28;20089;-72
2022/08/02 11:02:45;;;;;;;3.17;0.60;;;;;;;;;;5303606;28;20028;-72
2022/08/02 11:05:17;;;;;;;13.93;0.50;;;;;;;;;;5304338;28;20130;-72
2022/08/02 11:07:49;;;;;;;11.15;0.73;;;;;;;;;;5304297;28;20088;-72
2022/08/02 11:10:23;;;;;;;2.88;0.20;;;;;;;;;;5303299;28;20414;-72
2022/08/02 11:13:00;;;;;;;0.77;0.20;;;;;;;;;;5304402;28;20027;-73
2022/08/02 11:15:49;;;;;;;0.70;0.20;;;;;;;;;;5303521;28;20020;-71
2022/08/02 11:18:21;;;;;;;1.00;0.20;;;;;;;;;;5302876;28;20024;-72
2022/08/02 11:21:19;;;;;;;0.95;0.17;;;;;;;;;;5304196;28;20418;-72
2022/08/02 11:23:50;;;;;;;;;;;;;;;;;;5304109;28;20120;-72
2022/08/02 11:26:27;;;;;;;3.28;0.17;;;;;;;;;;5303666;28;19991;-72
2022/08/02 11:29:01;;;;;;;2.08;0.20;;;;;;;;;;5304257;28;20032;-72
2022/08/02 11:31:37;;;;;;;0.50;0.10;;;;;;;;;;5303028;28;20048;-71
2022/08/02 11:34:10;;;;;;;3.40;0.40;;;;;;;;;;5303833;28;20358;-72
2022/08/02 11:36:45;;;;;;;1.48;0.10;;;;;;;;;;5303945;28;20103;-72
2022/08/02 11:39:18;;;;;;;1.35;0.15;;;;;;;;;;5302481;28;20020;-72
2022/08/02 11:41:51;;;;;;;1.70;0.20;;;;;;;;;;5303778;28;20463;-73
2022/08/02 11:44:23;;;;;;;2.75;0.20;;;;;;;;;;5302436;28;20020;-73
2022/08/02 11:46:55;;;;;;;2.78;0.20;;;;;;;;;;5303965;28;20034;-72
2022/08/02 11:49:27;;;;;;;0.95;0.20;;;;;;;;;;5303368;28;20027;-69
2022/08/02 11:52:06;;;;;;;2.83;0.10;;;;;;;;;;5303114;28;20028;-69
2022/08/02 11:54:40;;;;;;;1.80;0.20;;;;;;;;;;5303458;28;20012;-69
2022/08/02 11:57:19;;;;;;;2.95;0.20;;;;;;;;;;5303113;28;20034;-69
2022/08/02 11:59:50;;;;;;;;;;;;;;;;;;5303015;28;20020;-69
2022/08/02 12:02:25;;;;;;;4.35;0.20;;;;;;;;;;5302817;28;20274;-69
2022/08/02 12:04:58;;;;;;;0.95;0.20;;;;;;;;;;5303377;28;20028;-69
2022/08/02 12:07:30;;;;;;;1.73;0.20;;;;;;;;;;5302305;28;20040;-68
2022/08/02 12:10:03;;;;;;;1.27;0.17;;;;;;;;;;5303292;28;20024;-69
2022/08/02 12:12:51;;;;;;;2.67;0.20;;;;;;;;;;5302463;28;20407;-70
2022/08/02 12:15:29;;;;;;;2.28;0.20;;;;;;;;;;5302591;28;20023;-68
2022/08/02 12:20:50;;;;;;;1.52;0.20;;;;;;;;;;5302435;28;20410;-69
2022/08/02 12:23:21;;;;;;;1.70;0.30;;;;;;;;;;5302548;28;20024;-68
2022/08/02 12:26:00;;;;;;;1.60;0.10;;;;;;;;;;5302995;28;20628;-70
2022/08/02 12:28:35;;;;;;;1.90;0.20;;;;;;;;;;5301502;28;20020;-71
2022/08/02 12:31:09;;;;;;;2.03;0.20;;;;;;;;;;5303012;28;20027;-72
2022/08/02 12:33:44;;;;;;;1.58;0.15;;;;;;;;;;5301975;28;20145;-73
2022/08/02 12:36:18;;;;;;;2.78;0.10;;;;;;;;;;5302605;28;20066;-72
2022/08/02 12:38:59;;;;;;;2.05;0.15;;;;;;;;;;5303041;28;20020;-70
2022/08/02 12:41:30;;;;;;;2.53;0.20;;;;;;;;;;5302068;28;20023;-72
2022/08/02 12:44:02;;;;;;;2.10;0.20;;;;;;;;;;5302747;28;20020;-72
2022/08/02 12:46:33;;;;;;;2.20;0.30;;;;;;;;;;5302417;28;20027;-72
2022/08/02 12:49:14;;;;;;;1.90;0.20;;;;;;;;;;5301773;28;20020;-72
2022/08/02 12:51:46;;;;;;;2.05;0.20;;;;;;;;;;5302730;28;20147;-72
2022/08/02 12:54:22;;;;;;;0.85;0.20;;;;;;;;;;5302681;28;20024;-72
2022/08/02 12:56:53;;;;;;;3.00;0.20;;;;;;;;;;5301519;28;20050;-72
2022/08/02 12:59:37;;;;;;;2.63;0.20;;;;;;;;;;5300739;28;20016;-72
2022/08/02 13:02:09;;;;;;;1.70;0.20;;;;;;;;;;5301167;28;20024;-73
2022/08/02 13:04:41;;;;;;;0.68;0.10;;;;;;;;;;5301843;28;20436;-72
2022/08/02 13:07:13;;;;;;;1.38;0.20;;;;;;;;;;5301480;28;20147;-71
2022/08/02 13:09:45;;;;;;;1.93;0.30;;;;;;;;;;5300785;28;20127;-72
2022/08/02 13:12:16;;;;;;;2.83;0.10;;;;;;;;;;5301963;28;20160;-72
2022/08/02 13:14:47;;;;;;;2.67;0.20;;;;;;;;;;5302467;28;20352;-71
2022/08/02 13:17:19;;;;;;;1.40;0.20;;;;;;;;;;5301329;28;20262;-71
2022/08/02 13:19:50;;;;;;;5.43;0.45;;;;;;;;;;5302533;28;20273;-72
2022/08/02 13:22:21;;;;;;;1.27;0.20;;;;;;;;;;5301362;28;20050;-71
2022/08/02 13:24:52;;;;;;;3.17;0.20;;;;;;;;;;5301974;28;20016;-70
2022/08/02 13:27:24;;;;;;;1.10;0.10;;;;;;;;;;5301938;28;20115;-71
2022/08/02 13:29:56;;;;;;;1.85;0.20;;;;;;;;;;5301857;28;20016;-71
2022/08/02 13:32:27;;;;;;;0.70;0.17;;;;;;;;;;5298535;28;20080;-70
2022/08/02 13:34:59;;;;;;;8.45;0.40;;;;;;;;;;5301843;28;20020;-70
2022/08/02 13:37:30;;;;;;;2.42;0.20;;;;;;;;;;5301301;28;20019;-71
2022/08/02 13:40:01;;;;;;;3.80;0.47;;;;;;;;;;5305257;28;20032;-71
2022/08/02 13:42:33;;;;;;;5.88;0.25;;;;;;;;;;5306072;28;20023;-70
2022/08/02 13:45:04;;;;;;;1.43;0.10;;;;;;;;;;5304847;28;20020;-70
2022/08/02 13:47:39;;;;;;;2.38;0.30;;;;;;;;;;5305564;28;20294;-70
2022/08/02 13:50:10;;;;;;;3.92;0.20;;;;;;;;;;5305450;28;20094;-71
2022/08/02 13:52:41;;;;;;;1.53;0.20;;;;;;;;;;5305120;28;20042;-70
2022/08/02 13:55:12;;;;;;;1.37;0.10;;;;;;;;;;5305016;28;20269;-71
2022/08/02 13:57:43;;;;;;;2.03;0.20;;;;;;;;;;5305451;28;20046;-70
2022/08/02 14:00:15;;;;;;;0.88;0.10;;;;;;;;;;5304777;28;20065;-71
2022/08/02 14:02:46;;;;;;;0.57;0.20;;;;;;;;;;5305319;28;20035;-70
2022/08/02 14:05:17;;;;;;;0.57;0.10;;;;;;;;;;5304568;28;20394;-69
2022/08/02 14:07:48;;;;;;;1.23;0.20;;;;;;;;;;5305368;28;20508;-70
2022/08/02 14:10:19;;;;;;;1.57;0.20;;;;;;;;;;5304917;28;20474;-71
2022/08/02 14:12:51;;;;;;;1.98;0.20;;;;;;;;;;5304479;28;20366;-70
2022/08/02 14:15:22;;;;;;;2.70;0.20;;;;;;;;;;5305143;28;20477;-72
2022/08/02 14:17:53;;;;;;;0.98;0.17;;;;;;;;;;5305750;28;20039;-70
2022/08/02 14:20:25;;;;;;;1.33;0.20;;;;;;;;;;5299885;28;20043;-69
2022/08/02 14:22:56;;;;;;;1.13;0.20;;;;;;;;;;5305596;28;20039;-69
2022/08/02 14:25:27;;;;;;;3.37;0.20;;;;;;;;;;5303985;28;20118;-69
2022/08/02 14:27:58;;;;;;;2.63;0.20;;;;;;;;;;5304004;28;20043;-69
2022/08/02 14:30:29;;;;;;;3.73;0.30;;;;;;;;;;5304115;28;20024;-70
2022/08/02 14:33:02;;;;;;;3.25;0.20;;;;;;;;;;5304174;28;20057;-71
2022/08/02 14:35:33;;;;;;;0.98;0.20;;;;;;;;;;5304717;28;20636;-69
2022/08/02 14:38:05;;;;;;;3.83;0.20;;;;;;;;;;5305072;28;20058;-70
2022/08/02 14:40:36;;;;;;;3.97;0.30;;;;;;;;;;5303925;28;20019;-69
2022/08/02 14:43:07;;;;;;;2.15;0.20;;;;;;;;;;5304893;28;20363;-68
2022/08/02 14:45:38;;;;;;;2.42;0.20;;;;;;;;;;5304471;28;20107;-69
2022/08/02 14:48:10;;;;;;;1.00;0.20;;;;;;;;;;5304069;28;20050;-69
2022/08/02 14:50:41;;;;;;;1.73;0.20;;;;;;;;;;5303326;28;20073;-73
2022/08/02 14:53:13;;;;;;;2.47;0.20;;;;;;;;;;5304678;28;20028;-70
2022/08/02 14:55:44;;;;;;;2.20;0.30;;;;;;;;;;5303774;28;20087;-69
2022/08/02 14:58:15;;;;;;;3.27;0.30;;;;;;;;;;5304518;28;20364;-70
2022/08/02 15:00:46;;;;;;;2.30;0.30;;;;;;;;;;5304627;28;20016;-69
2022/08/02 15:03:17;;;;;;;4.10;0.30;;;;;;;;;;5303813;28;20026;-70
2022/08/02 15:05:49;;;;;;;4.27;0.30;;;;;;;;;;5304521;28;20024;-70
2022/08/02 15:08:20;;;;;;;1.63;0.20;;;;;;;;;;5303199;28;20036;-71
2022/08/02 15:10:51;;;;;;;4.03;0.30;;;;;;;;;;5304623;28;20016;-70
2022/08/02 15:13:22;;;;;;;3.42;0.30;;;;;;;;;;5303913;28;20024;-71
2022/08/02 15:15:53;;;;;;;5.40;0.30;;;;;;;;;;5303840;28;20020;-70
2022/08/02 15:18:25;;;;;;;3.75;0.20;;;;;;;;;;5303960;28;20016;-71